createdAt,value
2019-01-23T00:01:33.435Z,-4.70
2019-01-23T00:04:02.517Z,-4.80
2019-01-23T00:06:33.151Z,-4.70
2019-01-23T00:09:02.402Z,-4.80
2019-01-23T00:11:32.197Z,-4.80
2019-01-23T00:14:01.726Z,-4.80
2019-01-23T00:16:32.188Z,-4.90
2019-01-23T00:19:01.676Z,-4.80
2019-01-23T00:21:30.517Z,-4.90
2019-01-23T00:24:00.166Z,-4.90
2019-01-23T00:26:29.493Z,-4.90
2019-01-23T00:28:58.615Z,-5.00
2019-01-23T00:31:27.709Z,-5.00
2019-01-23T00:33:56.514Z,-5.00
2019-01-23T00:36:26.289Z,-5.00
2019-01-23T00:38:56.792Z,-4.90
2019-01-23T00:41:26.233Z,-4.90
2019-01-23T00:43:56.013Z,-4.90
2019-01-23T00:46:25.199Z,-5.00
2019-01-23T00:48:54.410Z,-5.10
2019-01-23T00:51:23.822Z,-5.10
2019-01-23T00:53:53.465Z,-5.10
2019-01-23T00:56:22.313Z,-5.10
2019-01-23T00:58:51.098Z,-5.10
2019-01-23T01:01:21.545Z,-5.20
2019-01-23T01:03:50.853Z,-5.10
2019-01-23T01:06:19.975Z,-5.10
2019-01-23T01:08:49.617Z,-5.10
2019-01-23T01:11:19.211Z,-5.10
2019-01-23T01:13:48.491Z,-5.20
2019-01-23T01:16:17.756Z,-5.10
2019-01-23T01:18:48.052Z,-5.10
2019-01-23T01:21:17.092Z,-5.10
2019-01-23T01:23:47.709Z,-5.10
2019-01-23T01:26:16.661Z,-5.10
2019-01-23T01:28:48.094Z,-5.20
2019-01-23T01:31:17.449Z,-5.20
2019-01-23T01:33:46.514Z,-5.30
2019-01-23T01:36:15.578Z,-5.40
2019-01-23T01:38:45.173Z,-5.30
2019-01-23T01:41:14.286Z,-5.30
2019-01-23T01:43:43.225Z,-5.20
2019-01-23T01:46:13.822Z,-5.20
2019-01-23T01:48:43.902Z,-5.20
2019-01-23T01:51:13.221Z,-5.20
2019-01-23T01:53:42.006Z,-5.20
2019-01-23T01:56:11.293Z,-5.20
2019-01-23T01:58:40.084Z,-5.30
2019-01-23T02:01:09.586Z,-5.30
2019-01-23T02:03:39.269Z,-5.40
2019-01-23T02:06:08.506Z,-5.30
2019-01-23T02:08:38.781Z,-5.30
2019-01-23T02:11:09.145Z,-5.30
2019-01-23T02:13:38.442Z,-5.40
2019-01-23T02:16:07.642Z,-5.40
2019-01-23T02:18:37.034Z,-5.40
2019-01-23T02:21:07.834Z,-5.50
2019-01-23T02:23:36.865Z,-5.50
2019-01-23T02:26:07.034Z,-5.50
2019-01-23T02:28:36.249Z,-5.50
2019-01-23T02:31:05.877Z,-5.60
2019-01-23T02:33:34.988Z,-5.60
2019-01-23T02:36:04.073Z,-5.60
2019-01-23T02:38:34.666Z,-5.60
2019-01-23T02:41:03.457Z,-5.60
2019-01-23T02:43:33.505Z,-5.60
2019-01-23T02:46:02.418Z,-5.60
2019-01-23T02:48:31.659Z,-5.60
2019-01-23T02:51:01.222Z,-5.60
2019-01-23T02:53:32.631Z,-5.60
2019-01-23T02:56:01.600Z,-5.70
2019-01-23T02:58:31.628Z,-5.60
2019-01-23T03:01:00.564Z,-5.80
2019-01-23T03:03:33.502Z,-5.80
2019-01-23T03:06:03.337Z,-5.70
2019-01-23T03:08:32.702Z,-5.70
2019-01-23T03:11:03.322Z,-5.80
2019-01-23T03:13:33.837Z,-6.10
2019-01-23T03:16:05.313Z,-5.80
2019-01-23T03:18:34.449Z,-5.80
2019-01-23T03:21:04.181Z,-5.70
2019-01-23T03:23:36.275Z,-5.80
2019-01-23T03:26:06.639Z,-5.80
2019-01-23T03:28:38.018Z,-5.70
2019-01-23T03:31:08.042Z,-5.80
2019-01-23T03:33:37.952Z,-5.80
2019-01-23T03:36:06.910Z,-5.80
2019-01-23T03:38:36.505Z,-5.90
2019-01-23T03:41:07.117Z,-5.90
2019-01-23T03:43:36.514Z,-5.80
2019-01-23T03:46:07.284Z,-5.80
2019-01-23T03:48:36.205Z,-5.80
2019-01-23T03:51:05.051Z,-5.80
2019-01-23T03:53:34.073Z,-5.80
2019-01-23T03:56:03.037Z,-5.90
2019-01-23T03:58:33.366Z,-6.00
2019-01-23T04:01:03.782Z,-5.90
2019-01-23T04:03:33.091Z,-5.90
2019-01-23T04:06:02.617Z,-5.90
2019-01-23T04:08:33.239Z,-5.90
2019-01-23T04:11:03.376Z,-6.00
2019-01-23T04:13:32.461Z,-6.00
2019-01-23T04:16:04.114Z,-6.00
2019-01-23T04:18:34.158Z,-5.90
2019-01-23T04:21:05.173Z,-6.00
2019-01-23T04:23:34.591Z,-6.00
2019-01-23T04:26:03.969Z,-6.00
2019-01-23T04:28:34.201Z,-5.90
2019-01-23T04:31:02.965Z,-5.90
2019-01-23T04:33:32.161Z,-5.90
2019-01-23T04:36:01.143Z,-5.80
2019-01-23T04:38:30.169Z,-5.80
2019-01-23T04:40:59.266Z,-5.80
2019-01-23T04:43:30.908Z,-5.80
2019-01-23T04:45:59.836Z,-5.70
2019-01-23T04:48:28.818Z,-5.70
2019-01-23T04:51:15.321Z,-5.60
2019-01-23T04:53:47.105Z,-5.50
2019-01-23T04:56:16.152Z,-5.50
2019-01-23T04:58:45.466Z,-5.40
2019-01-23T05:01:16.087Z,-5.30
2019-01-23T05:03:45.315Z,-5.40
2019-01-23T05:06:14.188Z,-5.40
2019-01-23T05:08:44.943Z,-5.50
2019-01-23T05:11:15.060Z,-5.60
2019-01-23T05:13:45.954Z,-5.50
2019-01-23T05:16:16.245Z,-5.60
2019-01-23T05:18:45.581Z,-5.60
2019-01-23T05:21:16.215Z,-5.60
2019-01-23T05:23:46.581Z,-5.70
2019-01-23T05:26:16.173Z,-5.70
2019-01-23T05:28:45.243Z,-5.80
2019-01-23T05:31:14.571Z,-5.70
2019-01-23T05:33:44.158Z,-5.80
2019-01-23T05:36:14.836Z,-5.80
2019-01-23T05:38:43.985Z,-5.80
2019-01-23T05:41:13.300Z,-5.80
2019-01-23T05:43:42.676Z,-5.70
2019-01-23T05:46:12.398Z,-5.70
2019-01-23T05:48:43.127Z,-5.70
2019-01-23T05:51:13.369Z,-5.70
2019-01-23T05:53:43.675Z,-5.70
2019-01-23T05:56:13.365Z,-5.70
2019-01-23T05:58:43.801Z,-5.70
2019-01-23T06:01:12.782Z,-5.80
2019-01-23T06:03:41.689Z,-5.80
2019-01-23T06:06:11.813Z,-5.90
2019-01-23T06:08:42.098Z,-6.00
2019-01-23T06:11:11.738Z,-6.00
2019-01-23T06:13:41.852Z,-6.00
2019-01-23T06:16:10.841Z,-6.10
2019-01-23T06:18:39.969Z,-6.00
2019-01-23T06:21:09.379Z,-6.10
2019-01-23T06:23:39.149Z,-6.00
2019-01-23T06:26:08.130Z,-6.00
2019-01-23T06:28:37.087Z,-6.00
2019-01-23T06:31:06.137Z,-6.00
2019-01-23T06:33:35.750Z,-6.00
2019-01-23T06:36:05.075Z,-6.00
2019-01-23T06:38:34.809Z,-6.00
2019-01-23T06:41:03.918Z,-5.90
2019-01-23T06:43:33.882Z,-6.00
2019-01-23T06:46:03.102Z,-5.90
2019-01-23T06:48:32.982Z,-5.90
2019-01-23T06:51:01.901Z,-5.90
2019-01-23T06:53:30.978Z,-5.90
2019-01-23T06:56:00.071Z,-5.90
2019-01-23T06:58:29.397Z,-5.90
2019-01-23T07:01:00.047Z,-5.90
2019-01-23T07:03:30.721Z,-5.90
2019-01-23T07:06:00.006Z,-5.90
2019-01-23T07:08:30.342Z,-5.90
2019-01-23T07:10:59.812Z,-5.90
2019-01-23T07:13:29.209Z,-5.90
2019-01-23T07:15:58.098Z,-6.00
2019-01-23T07:18:26.949Z,-5.30
2019-01-23T07:20:57.195Z,-6.10
2019-01-23T07:23:26.333Z,-6.10
2019-01-23T07:25:55.811Z,-6.20
2019-01-23T07:28:25.935Z,-6.20
2019-01-23T07:30:55.989Z,-6.20
2019-01-23T07:33:27.178Z,-6.30
2019-01-23T07:35:57.252Z,-6.20
2019-01-23T07:38:26.721Z,-6.30
2019-01-23T07:40:55.659Z,-6.30
2019-01-23T07:43:26.517Z,-5.40
2019-01-23T07:45:55.614Z,-6.20
2019-01-23T07:48:24.667Z,-6.20
2019-01-23T07:50:55.138Z,-6.20
2019-01-23T07:53:24.057Z,-6.20
2019-01-23T07:55:54.109Z,-6.20
2019-01-23T07:58:24.230Z,-6.20
2019-01-23T08:00:53.461Z,-6.10
2019-01-23T08:03:22.502Z,-6.10
2019-01-23T08:05:52.680Z,-6.10
2019-01-23T08:08:21.736Z,-6.00
2019-01-23T08:10:51.405Z,-6.00
2019-01-23T08:13:21.539Z,-5.90
2019-01-23T08:15:50.446Z,-5.80
2019-01-23T08:18:19.475Z,-5.80
2019-01-23T08:20:50.143Z,-5.70
2019-01-23T08:23:19.093Z,-5.70
2019-01-23T08:25:49.890Z,-5.70
2019-01-23T08:28:19.167Z,-5.60
2019-01-23T08:30:48.098Z,-5.50
2019-01-23T08:33:18.839Z,-5.50
2019-01-23T08:35:48.413Z,-5.40
2019-01-23T08:38:20.534Z,-5.50
2019-01-23T08:40:49.754Z,-5.50
2019-01-23T08:43:19.781Z,-5.50
2019-01-23T08:45:50.243Z,-5.40
2019-01-23T08:48:20.838Z,-5.50
2019-01-23T08:50:50.221Z,-5.50
2019-01-23T08:53:19.686Z,-5.50
2019-01-23T08:55:53.604Z,-5.40
2019-01-23T08:58:19.757Z,-5.40
2019-01-23T09:00:50.752Z,-5.40
2019-01-23T09:03:20.167Z,-5.40
2019-01-23T09:05:49.133Z,-5.40
2019-01-23T09:08:18.209Z,-5.40
2019-01-23T09:10:48.065Z,-5.40
2019-01-23T09:13:18.767Z,-5.30
2019-01-23T09:15:50.142Z,-5.30
2019-01-23T09:18:19.318Z,-5.30
2019-01-23T09:20:48.338Z,-5.30
2019-01-23T09:23:17.445Z,-5.30
2019-01-23T09:25:50.131Z,-5.20
2019-01-23T09:28:17.459Z,-5.10
2019-01-23T09:31:11.589Z,-5.00
2019-01-23T09:33:48.734Z,-4.90
2019-01-23T09:36:43.617Z,-4.70
2019-01-23T09:39:35.937Z,-4.50
2019-01-23T09:42:32.913Z,-4.60
2019-01-23T09:45:38.657Z,-4.60
2019-01-23T09:48:28.557Z,-4.60
2019-01-23T09:51:18.923Z,-4.50
2019-01-23T09:53:54.843Z,-4.30
2019-01-23T09:56:24.397Z,-4.30
2019-01-23T09:58:53.732Z,-4.30
2019-01-23T10:01:23.510Z,-4.10
2019-01-23T10:03:52.610Z,-4.30
2019-01-23T10:06:40.761Z,-4.50
2019-01-23T10:09:10.577Z,-4.60
2019-01-23T10:11:39.461Z,-4.40
2019-01-23T10:14:08.654Z,-4.30
2019-01-23T10:16:38.565Z,-4.50
2019-01-23T10:19:07.666Z,-4.50
2019-01-23T10:21:37.609Z,-4.70
2019-01-23T10:24:06.441Z,-4.60
2019-01-23T10:26:35.578Z,-4.50
2019-01-23T10:29:05.489Z,-4.30
2019-01-23T10:31:34.643Z,-4.40
2019-01-23T10:34:04.521Z,-4.40
2019-01-23T10:36:34.095Z,-4.50
2019-01-23T10:39:05.217Z,-4.50
2019-01-23T10:41:35.846Z,-4.30
2019-01-23T10:44:05.332Z,-4.40
2019-01-23T10:46:34.682Z,-4.50
2019-01-23T10:49:03.797Z,-4.40
2019-01-23T10:51:33.642Z,-4.40
2019-01-23T10:54:02.670Z,-4.40
2019-01-23T10:56:35.902Z,-4.40
2019-01-23T10:59:05.524Z,-4.40
2019-01-23T11:01:34.309Z,-4.20
2019-01-23T11:04:03.169Z,-4.20
2019-01-23T11:06:32.342Z,-4.20
2019-01-23T11:09:01.473Z,-4.10
2019-01-23T11:11:30.652Z,-4.00
2019-01-23T11:14:00.957Z,-4.00
2019-01-23T11:16:31.005Z,-4.30
2019-01-23T11:19:00.683Z,-4.20
2019-01-23T11:21:31.411Z,-3.90
2019-01-23T11:24:00.514Z,-3.90
2019-01-23T11:26:30.653Z,-3.90
2019-01-23T11:28:59.749Z,-3.90
2019-01-23T11:31:28.618Z,-4.10
2019-01-23T11:33:57.385Z,-4.10
2019-01-23T11:36:29.117Z,-4.00
2019-01-23T11:38:58.026Z,-3.90
2019-01-23T11:41:27.161Z,-3.90
2019-01-23T11:43:57.986Z,-3.90
2019-01-23T11:46:28.985Z,-3.90
2019-01-23T11:48:58.248Z,-4.10
2019-01-23T11:51:27.515Z,-4.10
2019-01-23T11:53:56.906Z,-4.00
2019-01-23T11:56:25.773Z,-3.90
2019-01-23T11:58:56.267Z,-3.70
2019-01-23T12:01:27.669Z,-4.00
2019-01-23T12:03:56.161Z,-4.10
2019-01-23T12:06:26.089Z,-3.90
2019-01-23T12:08:55.026Z,-3.90
2019-01-23T12:11:23.929Z,-4.00
2019-01-23T12:13:52.960Z,-3.90
2019-01-23T12:16:22.313Z,-3.90
2019-01-23T12:18:51.257Z,-3.90
2019-01-23T12:21:20.254Z,-3.70
2019-01-23T12:23:49.450Z,-3.80
2019-01-23T12:26:18.336Z,-3.90
2019-01-23T12:28:50.610Z,-3.90
2019-01-23T12:31:19.665Z,-4.00
2019-01-23T12:33:48.578Z,-3.90
2019-01-23T12:36:17.942Z,-3.90
2019-01-23T12:38:47.806Z,-3.80
2019-01-23T12:41:17.157Z,-3.90
2019-01-23T12:43:49.230Z,-3.90
2019-01-23T12:46:18.114Z,-4.00
2019-01-23T12:48:47.721Z,-3.90
2019-01-23T12:51:17.205Z,-4.10
2019-01-23T12:53:47.038Z,-4.00
2019-01-23T12:56:16.297Z,-4.00
2019-01-23T12:58:46.045Z,-4.10
2019-01-23T13:01:15.745Z,-4.00
2019-01-23T13:03:46.150Z,-3.90
2019-01-23T13:06:15.584Z,-3.90
2019-01-23T13:08:45.754Z,-3.90
2019-01-23T13:11:14.986Z,-3.90
2019-01-23T13:13:44.225Z,-3.90
2019-01-23T13:16:13.481Z,-3.90
2019-01-23T13:18:42.382Z,-3.90
2019-01-23T13:21:11.832Z,-3.90
2019-01-23T13:23:41.262Z,-3.80
2019-01-23T13:26:11.856Z,-3.80
2019-01-23T13:28:41.435Z,-3.90
2019-01-23T13:31:11.200Z,-3.80
2019-01-23T13:33:40.370Z,-3.70
2019-01-23T13:36:10.125Z,-3.80
2019-01-23T13:38:39.180Z,-3.90
2019-01-23T13:41:10.041Z,-4.00
2019-01-23T13:43:39.261Z,-3.90
2019-01-23T13:46:08.013Z,-4.00
2019-01-23T13:48:37.214Z,-3.90
2019-01-23T13:51:07.245Z,-3.90
2019-01-23T13:53:36.151Z,-3.80
2019-01-23T13:56:06.341Z,-3.80
2019-01-23T13:58:41.744Z,-3.90
2019-01-23T14:01:09.153Z,-4.00
2019-01-23T14:03:38.700Z,-3.90
2019-01-23T14:06:08.254Z,-3.90
2019-01-23T14:08:37.262Z,-3.90
2019-01-23T14:11:06.548Z,-4.00
2019-01-23T14:13:37.861Z,-4.00
2019-01-23T14:16:08.079Z,-4.00
2019-01-23T14:18:37.126Z,-4.00
2019-01-23T14:21:06.874Z,-3.90
2019-01-23T14:23:36.804Z,-4.00
2019-01-23T14:26:06.779Z,-4.00
2019-01-23T14:28:36.913Z,-4.00
2019-01-23T14:31:06.930Z,-4.00
2019-01-23T14:33:36.562Z,-4.10
2019-01-23T14:36:05.813Z,-4.10
2019-01-23T14:38:36.129Z,-4.20
2019-01-23T14:41:05.561Z,-4.30
2019-01-23T14:43:35.651Z,-4.20
2019-01-23T14:46:06.241Z,-4.30
2019-01-23T14:48:35.283Z,-4.30
2019-01-23T14:51:05.582Z,-4.40
2019-01-23T14:53:35.710Z,-4.40
2019-01-23T14:56:04.810Z,-4.50
2019-01-23T14:58:34.001Z,-4.40
2019-01-23T15:01:03.046Z,-4.40
2019-01-23T15:03:32.705Z,-4.50
2019-01-23T15:06:01.501Z,-4.50
2019-01-23T15:08:30.668Z,-4.60
2019-01-23T15:11:02.211Z,-4.60
2019-01-23T15:13:31.177Z,-4.70
2019-01-23T15:16:00.065Z,-4.70
2019-01-23T15:18:29.762Z,-4.70
2019-01-23T15:20:58.579Z,-4.80
2019-01-23T15:23:27.649Z,-4.80
2019-01-23T15:25:56.445Z,-4.80
2019-01-23T15:28:26.902Z,-4.90
2019-01-23T15:30:55.850Z,-4.90
2019-01-23T15:33:26.454Z,-5.10
2019-01-23T15:35:55.572Z,-5.10
2019-01-23T15:38:25.072Z,-5.10
2019-01-23T15:40:54.654Z,-5.10
2019-01-23T15:43:23.661Z,-5.10
2019-01-23T15:45:52.562Z,-5.20
2019-01-23T15:48:22.892Z,-5.20
2019-01-23T15:50:51.793Z,-5.20
2019-01-23T15:53:21.641Z,-5.30
2019-01-23T15:55:50.503Z,-5.40
2019-01-23T15:58:19.615Z,-5.30
2019-01-23T16:00:48.582Z,-5.40
2019-01-23T16:03:18.986Z,-5.50
2019-01-23T16:05:47.983Z,-5.50
2019-01-23T16:08:17.102Z,-5.50
2019-01-23T16:10:47.424Z,-5.60
2019-01-23T16:13:16.682Z,-5.70
2019-01-23T16:15:45.718Z,-5.80
2019-01-23T16:18:14.570Z,-5.70
2019-01-23T16:20:43.585Z,-5.70
2019-01-23T16:23:14.057Z,-5.70
2019-01-23T16:25:45.953Z,-5.70
2019-01-23T16:28:15.058Z,-5.70
2019-01-23T16:30:44.527Z,-5.80
2019-01-23T16:33:14.688Z,-5.80
2019-01-23T16:35:43.437Z,-5.80
2019-01-23T16:38:12.618Z,-5.80
2019-01-23T16:40:42.481Z,-5.80
2019-01-23T16:43:11.889Z,-5.80
2019-01-23T16:45:40.952Z,-5.90
2019-01-23T16:48:09.780Z,-5.90
2019-01-23T16:50:38.799Z,-5.90
2019-01-23T16:53:08.968Z,-6.00
2019-01-23T16:55:39.114Z,-6.00
2019-01-23T16:58:09.095Z,-6.10
2019-01-23T17:00:38.514Z,-6.10
2019-01-23T17:03:07.826Z,-6.20
2019-01-23T17:05:38.477Z,-6.50
2019-01-23T17:08:09.109Z,-6.70
2019-01-23T17:10:37.973Z,-6.70
2019-01-23T17:13:07.711Z,-6.80
2019-01-23T17:15:36.889Z,-6.70
2019-01-23T17:18:06.802Z,-6.70
2019-01-23T17:20:41.288Z,-6.50
2019-01-23T17:23:10.537Z,-6.60
2019-01-23T17:25:39.788Z,-6.70
2019-01-23T17:28:11.150Z,-6.80
2019-01-23T17:30:40.762Z,-7.00
2019-01-23T17:33:10.981Z,-7.00
2019-01-23T17:35:40.389Z,-7.10
2019-01-23T17:38:09.611Z,-7.20
2019-01-23T17:40:39.270Z,-7.20
2019-01-23T17:43:08.861Z,-7.00
2019-01-23T17:45:39.534Z,-7.00
2019-01-23T17:48:11.253Z,-6.90
2019-01-23T17:50:41.001Z,-7.00
2019-01-23T17:53:10.862Z,-7.10
2019-01-23T17:55:43.357Z,-7.30
2019-01-23T17:58:14.726Z,-7.40
2019-01-23T18:00:58.157Z,-7.50
2019-01-23T18:03:27.809Z,-7.50
2019-01-23T18:06:08.852Z,-7.60
2019-01-23T18:08:38.446Z,-7.60
2019-01-23T18:11:10.657Z,-7.50
2019-01-23T18:13:39.428Z,-7.50
2019-01-23T18:16:10.998Z,-7.50
2019-01-23T18:18:41.302Z,-7.50
2019-01-23T18:21:11.055Z,-7.50
2019-01-23T18:23:40.123Z,-7.70
2019-01-23T18:26:09.285Z,-7.80
2019-01-23T18:28:39.962Z,-7.90
2019-01-23T18:31:45.171Z,-7.90
2019-01-23T18:34:45.546Z,-8.00
2019-01-23T18:37:24.145Z,-8.00
2019-01-23T18:40:30.378Z,-8.00
2019-01-23T18:43:27.817Z,-8.00
2019-01-23T18:46:14.141Z,-8.00
2019-01-23T18:49:19.376Z,-8.00
2019-01-23T18:52:09.162Z,-8.00
2019-01-23T18:54:38.114Z,-7.90
2019-01-23T18:57:09.182Z,-7.80
2019-01-23T18:59:38.593Z,-7.80
2019-01-23T19:02:10.958Z,-7.90
2019-01-23T19:04:42.708Z,-8.00
2019-01-23T19:07:11.762Z,-8.00
2019-01-23T19:09:45.306Z,-8.00
2019-01-23T19:12:14.833Z,-8.10
2019-01-23T19:14:44.837Z,-8.10
2019-01-23T19:17:14.273Z,-8.10
2019-01-23T19:19:45.925Z,-8.20
2019-01-23T19:22:15.158Z,-8.20
2019-01-23T19:24:44.492Z,-8.30
2019-01-23T19:27:14.177Z,-8.40
2019-01-23T19:29:44.381Z,-8.40
2019-01-23T19:34:43.257Z,-8.50
2019-01-23T19:37:13.420Z,-8.50
2019-01-23T19:39:42.585Z,-8.40
2019-01-23T19:42:14.238Z,-8.40
2019-01-23T19:44:44.663Z,-8.50
2019-01-23T19:47:14.281Z,-8.50
2019-01-23T19:49:43.138Z,-8.50
2019-01-23T19:52:14.169Z,-8.40
2019-01-23T19:54:43.399Z,-8.20
2019-01-23T19:57:12.547Z,-8.20
2019-01-23T19:59:41.517Z,-8.00
2019-01-23T20:02:11.993Z,-8.10
2019-01-23T20:04:41.551Z,-8.00
2019-01-23T20:07:10.779Z,-7.90
2019-01-23T20:09:41.103Z,-8.00
2019-01-23T20:12:15.616Z,-8.00
2019-01-23T20:14:44.575Z,-8.00
2019-01-23T20:17:13.453Z,-8.00
2019-01-23T20:19:43.522Z,-8.00
2019-01-23T20:22:12.622Z,-8.00
2019-01-23T20:24:43.553Z,-8.20
2019-01-23T20:27:12.570Z,-8.40
2019-01-23T20:29:41.973Z,-8.60
2019-01-23T20:32:11.696Z,-8.70
2019-01-23T20:34:40.549Z,-8.70
2019-01-23T20:37:10.341Z,-8.60
2019-01-23T20:39:39.298Z,-8.60
2019-01-23T20:42:08.973Z,-8.80
2019-01-23T20:44:38.666Z,-8.80
2019-01-23T20:47:08.093Z,-8.70
2019-01-23T20:49:39.122Z,-8.40
2019-01-23T20:52:11.025Z,-8.30
2019-01-23T20:54:40.782Z,-8.20
2019-01-23T20:57:09.874Z,-8.10
2019-01-23T20:59:41.686Z,-8.00
2019-01-23T21:02:10.833Z,-8.10
2019-01-23T21:04:41.021Z,-8.00
2019-01-23T21:07:09.902Z,-8.20
2019-01-23T21:09:39.130Z,-8.10
2019-01-23T21:12:09.366Z,-8.10
2019-01-23T21:14:38.502Z,-8.10
2019-01-23T21:17:07.321Z,-8.00
2019-01-23T21:19:36.558Z,-7.60
2019-01-23T21:22:05.529Z,-7.30
2019-01-23T21:24:36.697Z,-7.30
2019-01-23T21:27:05.698Z,-7.40
2019-01-23T21:29:36.614Z,-7.10
2019-01-23T21:32:06.062Z,-7.20
2019-01-23T21:34:35.210Z,-7.30
2019-01-23T21:37:04.144Z,-7.40
2019-01-23T21:39:34.189Z,-7.30
2019-01-23T21:42:04.145Z,-7.30
2019-01-23T21:44:33.305Z,-7.20
2019-01-23T21:47:03.521Z,-7.30
2019-01-23T21:49:33.782Z,-7.30
2019-01-23T21:52:02.574Z,-7.00
2019-01-23T21:54:32.458Z,-7.20
2019-01-23T21:57:01.834Z,-7.10
2019-01-23T21:59:31.097Z,-7.10
2019-01-23T22:02:00.657Z,-7.10
2019-01-23T22:04:29.837Z,-7.20
2019-01-23T22:06:59.989Z,-7.20
2019-01-23T22:09:29.273Z,-7.10
2019-01-23T22:11:58.794Z,-7.10
2019-01-23T22:14:28.824Z,-7.00
2019-01-23T22:16:58.642Z,-6.90
2019-01-23T22:19:27.657Z,-6.90
2019-01-23T22:21:57.546Z,-6.90
2019-01-23T22:24:28.382Z,-7.00
2019-01-23T22:26:57.614Z,-7.00
2019-01-23T22:29:27.494Z,-7.10
2019-01-23T22:31:59.695Z,-7.30
2019-01-23T22:34:33.434Z,-7.30
2019-01-23T22:37:02.378Z,-7.00
2019-01-23T22:39:31.681Z,-6.80
2019-01-23T22:42:00.628Z,-6.80
2019-01-23T22:44:29.874Z,-6.80
2019-01-23T22:46:59.419Z,-6.80
2019-01-23T22:49:28.646Z,-6.80
2019-01-23T22:51:58.565Z,-6.80
2019-01-23T22:54:28.822Z,-6.80
2019-01-23T22:56:58.050Z,-6.80
2019-01-23T22:59:28.402Z,-6.80
2019-01-23T23:01:58.370Z,-6.80
2019-01-23T23:04:28.238Z,-6.80
2019-01-23T23:06:57.757Z,-6.80
2019-01-23T23:09:26.965Z,-6.70
2019-01-23T23:11:56.098Z,-6.80
2019-01-23T23:14:26.266Z,-6.80
2019-01-23T23:16:56.986Z,-6.80
2019-01-23T23:19:25.867Z,-6.70
2019-01-23T23:21:55.852Z,-6.80
2019-01-23T23:24:27.789Z,-6.80
2019-01-23T23:26:57.077Z,-6.70
2019-01-23T23:29:26.092Z,-6.70
2019-01-23T23:31:58.847Z,-6.70
2019-01-23T23:34:28.053Z,-6.70
2019-01-23T23:36:58.136Z,-6.70
2019-01-23T23:39:26.971Z,-6.70
2019-01-23T23:41:56.070Z,-6.80
2019-01-23T23:44:25.774Z,-6.80
2019-01-23T23:46:57.946Z,-6.90
2019-01-23T23:49:27.459Z,-6.90
2019-01-23T23:51:57.760Z,-6.90
2019-01-23T23:54:27.229Z,-6.90
2019-01-23T23:56:56.543Z,-6.90
2019-01-23T23:59:25.757Z,-6.90
